Time;durP1;ratioP1;P1;durP2;ratioP2;P2;SDS_P1;SDS_P2;PMS_P1;PMS_P2;Temp;Humidity;BMP_temperature;BMP_pressure;BME280_temperature;BME280_humidity;BME280_pressure;Samples;Min_cycle;Max_cycle;Signal;HPM_P1;HPM_P2
2024/01/16 00:00:58;;;;;;;12.90;7.10;;;;;;;-144.99;97.70;75527.84;108359;1250;73320;-74
2024/01/16 00:03:24;;;;;;;10.90;6.80;;;;;;;-144.99;97.92;75536.98;108348;1250;70786;-74
2024/01/16 00:05:51;;;;;;;10.20;6.20;;;;;;;-144.99;97.98;75539.37;108334;1250;60693;-74
2024/01/16 00:08:18;;;;;;;10.00;6.20;;;;;;;-144.99;98.08;75547.73;108384;1250;60154;-74
2024/01/16 00:10:45;;;;;;;10.10;6.60;;;;;;;-144.99;97.95;75556.48;108374;1250;73770;-74
2024/01/16 00:13:12;;;;;;;10.10;7.20;;;;;;;-144.99;97.96;75558.05;108355;1250;73569;-74
2024/01/16 00:15:41;;;;;;;8.40;5.80;;;;;;;-144.99;97.57;75557.66;108380;1253;72590;-74
2024/01/16 00:18:08;;;;;;;11.10;6.30;;;;;;;-144.99;96.93;75558.05;108339;1254;60385;-74
2024/01/16 00:20:35;;;;;;;9.40;6.00;;;;;;;-144.99;96.89;75562.04;108337;1250;60299;-74
2024/01/16 00:23:02;;;;;;;12.10;6.90;;;;;;;-144.99;97.32;75566.02;108390;1250;72292;-74
2024/01/16 00:25:29;;;;;;;9.80;6.30;;;;;;;-144.99;97.53;75569.98;108381;1250;73352;-74
2024/01/16 00:27:56;;;;;;;9.40;5.80;;;;;;;-144.99;97.88;75574.77;108340;1250;71150;-73
2024/01/16 00:30:23;;;;;;;8.90;5.40;;;;;;;-144.99;98.32;75579.54;108348;1253;60878;-74
2024/01/16 00:32:49;;;;;;;7.60;5.10;;;;;;;-144.99;98.27;75585.90;108399;1251;60968;-74
2024/01/16 00:35:17;;;;;;;6.90;4.60;;;;;;;-144.99;98.54;75585.11;108359;1250;74073;-74
2024/01/16 00:37:44;;;;;;;9.60;5.40;;;;;;;-144.99;98.24;75589.48;108378;1250;73310;-74
2024/01/16 00:40:11;;;;;;;7.50;4.70;;;;;;;-144.99;97.22;75596.23;108331;1250;72400;-74
2024/01/16 00:42:38;;;;;;;6.40;4.20;;;;;;;-144.99;96.14;75604.59;108355;1250;60263;-74
2024/01/16 00:45:05;;;;;;;6.10;4.40;;;;;;;-144.99;95.09;75612.55;108378;1250;59088;-74
2024/01/16 00:47:33;;;;;;;9.60;4.90;;;;;;;-144.99;94.43;75615.73;108379;1250;73760;-74
2024/01/16 00:50:01;;;;;;;6.60;3.30;;;;;;;-144.99;93.63;75622.09;108340;1250;73334;-74
2024/01/16 00:52:29;;;;;;;5.70;3.60;;;;;;;-144.99;92.31;75631.64;108329;1253;72614;-74
2024/01/16 00:54:56;;;;;;;5.10;3.10;;;;;;;-144.99;91.82;75645.16;108316;1250;60797;-74
2024/01/16 00:57:22;;;;;;;5.80;3.10;;;;;;;-144.99;91.68;75657.09;108338;1254;60384;-74
2024/01/16 00:59:49;;;;;;;6.20;3.00;;;;;;;-144.99;90.18;75662.66;108426;1250;73819;-73
2024/01/16 01:02:16;;;;;;;5.60;2.90;;;;;;;-144.99;89.13;75677.38;108360;1250;73521;-74
2024/01/16 01:04:43;;;;;;;5.80;2.80;;;;;;;-144.99;89.21;75686.13;108348;1250;72630;-73
2024/01/16 01:07:13;;;;;;;7.10;3.20;;;;;;;-144.99;89.14;75692.09;108359;1250;60303;-74
2024/01/16 01:09:40;;;;;;;5.70;3.00;;;;;;;-144.99;89.20;75700.05;108352;1249;60004;-74
2024/01/16 01:12:07;;;;;;;4.70;3.20;;;;;;;-144.99;88.95;75708.40;108336;1250;72850;-74
2024/01/16 01:14:34;;;;;;;4.80;3.00;;;;;;;-144.99;88.74;75722.71;108384;1250;72439;-73
2024/01/16 01:17:01;;;;;;;4.40;2.40;;;;;;;-144.99;88.70;75728.28;108328;1253;72838;-73
2024/01/16 01:19:28;;;;;;;5.10;2.60;;;;;;;-144.99;89.08;75728.29;108356;1250;60283;-73
2024/01/16 01:21:55;;;;;;;3.50;2.10;;;;;;;-144.99;87.01;75741.41;108336;1250;60292;-73
2024/01/16 01:24:22;;;;;;;3.30;2.40;;;;;;;-144.99;83.85;75755.73;108361;1253;73599;-73
2024/01/16 01:26:48;;;;;;;3.60;2.20;;;;;;;-144.99;83.03;75762.89;108328;1250;73458;-73
2024/01/16 01:29:17;;;;;;;2.80;2.00;;;;;;;-144.99;83.05;75778.00;108340;1251;72641;-73
2024/01/16 01:31:47;;;;;;;3.40;2.10;;;;;;;-144.99;82.06;75785.95;108358;1251;60994;-74
2024/01/16 01:34:15;;;;;;;3.40;2.00;;;;;;;-144.99;81.80;75800.67;108386;1250;60060;-74
2024/01/16 01:36:43;;;;;;;3.70;2.20;;;;;;;-144.99;81.37;75811.02;108303;1253;74362;-74
2024/01/16 01:39:10;;;;;;;4.00;2.40;;;;;;;-144.99;81.31;75828.52;108355;1250;73260;-73
2024/01/16 01:41:38;;;;;;;2.90;2.20;;;;;;;-144.99;81.51;75841.64;108333;1251;72474;-73
2024/01/16 01:44:06;;;;;;;2.70;2.00;;;;;;;-144.99;81.78;75857.15;108289;1250;61004;-74
2024/01/16 01:46:34;;;;;;;2.80;1.70;;;;;;;-144.99;82.25;75877.84;108371;1251;60405;-73
2024/01/16 01:49:01;;;;;;;3.40;2.20;;;;;;;-144.99;83.17;75892.55;108432;1250;73609;-74
2024/01/16 01:51:28;;;;;;;3.60;2.10;;;;;;;-144.99;83.85;75906.88;108370;1250;73487;-73
2024/01/16 01:53:55;;;;;;;4.30;3.00;;;;;;;-144.99;84.55;75927.55;108358;1250;72367;-74
2024/01/16 01:56:21;;;;;;;4.70;2.70;;;;;;;-144.99;85.62;75946.25;108428;1250;60470;-73
2024/01/16 01:58:50;;;;;;;6.00;3.10;;;;;;;-144.99;86.40;75957.39;108277;1253;60463;-74
2024/01/16 02:01:17;;;;;;;5.00;2.40;;;;;;;-144.99;87.15;75963.36;108335;1250;72523;-74
2024/01/16 02:03:45;;;;;;;2.80;2.00;;;;;;;-144.99;87.40;75965.74;108329;1250;73311;-73
2024/01/16 02:06:12;;;;;;;5.00;2.40;;;;;;;-144.99;87.61;75972.90;108327;1251;72701;-74
2024/01/16 02:08:39;;;;;;;4.80;2.40;;;;;;;-144.99;87.73;75971.31;108462;1250;60952;-73
2024/01/16 02:11:07;;;;;;;6.00;2.60;;;;;;;-144.99;87.85;75964.15;108358;1250;60367;-73
2024/01/16 02:13:34;;;;;;;6.40;2.80;;;;;;;-144.99;87.79;75958.58;108343;1250;73761;-73
2024/01/16 02:16:01;;;;;;;4.60;2.80;;;;;;;-144.99;87.51;75947.05;108461;1250;73606;-73
2024/01/16 02:18:28;;;;;;;5.30;2.70;;;;;;;-144.99;87.34;75941.48;108447;1250;72547;-73
2024/01/16 02:21:01;;;;;;;3.30;2.50;;;;;;;-144.99;87.10;75934.71;108350;1254;59413;-73
2024/01/16 02:23:28;;;;;;;4.50;2.20;;;;;;;-144.99;86.86;75934.32;108363;1250;60382;-73
2024/01/16 02:25:54;;;;;;;5.20;2.40;;;;;;;-144.99;86.68;75932.73;108343;1254;73834;-73
2024/01/16 02:28:21;;;;;;;4.70;2.10;;;;;;;-144.99;86.30;75934.71;108365;1250;73338;-74
2024/01/16 02:30:48;;;;;;;4.90;2.50;;;;;;;-144.99;86.08;75933.52;108322;1250;72734;-73
2024/01/16 02:33:15;;;;;;;4.90;2.40;;;;;;;-144.99;85.61;75930.73;108345;1251;60283;-73
2024/01/16 02:35:42;;;;;;;4.80;2.50;;;;;;;-144.99;85.29;75933.52;108322;1250;60153;-73
2024/01/16 02:38:09;;;;;;;6.60;5.90;;;;;;;-144.99;84.94;75936.70;108325;1253;73810;-73
2024/01/16 02:40:36;;;;;;;5.00;3.50;;;;;;;-144.99;84.62;75941.48;108340;1250;73446;-74
2024/01/16 02:43:03;;;;;;;2.30;1.70;;;;;;;-144.99;84.52;75941.08;108328;1250;72660;-74
2024/01/16 02:45:29;;;;;;;3.40;2.20;;;;;;;-144.99;83.73;75941.88;108354;1250;60421;-73
2024/01/16 02:47:56;;;;;;;3.90;2.00;;;;;;;-144.99;83.61;75939.09;108370;1250;60146;-73
2024/01/16 02:50:23;;;;;;;2.70;2.10;;;;;;;-144.99;83.90;75945.85;108508;1250;73813;-73
2024/01/16 02:52:50;;;;;;;3.90;2.50;;;;;;;-144.99;83.96;75945.86;108316;1253;73259;-72
2024/01/16 02:55:17;;;;;;;3.10;1.80;;;;;;;-144.99;83.64;75951.02;108318;1251;71384;-73
2024/01/16 02:57:44;;;;;;;4.20;2.20;;;;;;;-144.99;83.39;75949.04;108335;1253;60288;-75
2024/01/16 03:00:11;;;;;;;3.40;2.30;;;;;;;-144.99;82.95;75950.63;108534;1251;60277;-74
2024/01/16 03:02:39;;;;;;;4.10;2.20;;;;;;;-144.99;82.98;75949.84;108377;1251;73679;-74
2024/01/16 03:05:06;;;;;;;4.40;2.40;;;;;;;-144.99;82.80;75952.23;108354;1253;72699;-75
2024/01/16 03:07:33;;;;;;;3.20;2.00;;;;;;;-144.99;82.64;75951.42;108319;1251;72885;-75
2024/01/16 03:10:00;;;;;;;4.00;2.40;;;;;;;-144.99;82.48;75955.40;108305;1250;60816;-74
2024/01/16 03:12:26;;;;;;;2.50;2.10;;;;;;;-144.99;82.59;75956.98;108324;1251;60357;-75
2024/01/16 03:14:54;;;;;;;3.40;2.20;;;;;;;-144.99;82.75;75953.81;108393;1253;73733;-74
2024/01/16 03:17:21;;;;;;;3.40;2.20;;;;;;;-144.99;83.05;75960.57;108491;1251;73430;-74
2024/01/16 03:19:48;;;;;;;3.50;2.40;;;;;;;-144.99;82.56;75956.98;108348;1250;72580;-74
2024/01/16 03:22:15;;;;;;;4.10;2.60;;;;;;;-144.99;82.62;75960.57;108294;1253;59242;-75
2024/01/16 03:24:41;;;;;;;3.20;2.40;;;;;;;-144.99;82.82;75963.36;108418;1250;60086;-75
2024/01/16 03:27:08;;;;;;;2.50;2.10;;;;;;;-144.99;82.73;75962.55;108356;1250;72582;-74
2024/01/16 03:29:35;;;;;;;3.90;2.10;;;;;;;-144.99;82.30;75963.36;108356;1251;73370;-74
2024/01/16 03:32:02;;;;;;;4.60;1.90;;;;;;;-144.99;82.16;75974.09;108320;1253;72414;-75
2024/01/16 03:34:31;;;;;;;2.50;1.90;;;;;;;-144.99;82.08;75977.67;108310;1250;60383;-74
2024/01/16 03:36:58;;;;;;;3.30;2.10;;;;;;;-144.99;81.71;75974.49;108354;1251;60393;-74
2024/01/16 03:39:25;;;;;;;2.40;1.80;;;;;;;-144.99;81.67;75980.85;108342;1253;73425;-75
2024/01/16 03:41:52;;;;;;;2.70;1.90;;;;;;;-144.99;81.87;75985.63;108368;1250;73462;-74
2024/01/16 03:44:19;;;;;;;3.70;1.80;;;;;;;-144.99;81.94;75991.99;108362;1254;72959;-75
2024/01/16 03:46:46;;;;;;;3.60;2.10;;;;;;;-144.99;81.94;75991.98;108322;1254;60270;-75
2024/01/16 03:49:12;;;;;;;4.40;1.70;;;;;;;-144.99;82.13;75998.36;108361;1249;60267;-75
2024/01/16 03:51:42;;;;;;;2.70;1.70;;;;;;;-144.99;82.60;76000.74;108366;1251;72416;-75
2024/01/16 03:54:09;;;;;;;5.00;2.10;;;;;;;-144.99;82.23;76005.12;108359;1251;74226;-74
2024/01/16 03:56:36;;;;;;;4.10;2.60;;;;;;;-144.99;82.40;76011.09;108374;1253;72654;-75
2024/01/16 03:59:03;;;;;;;2.80;2.00;;;;;;;-144.99;82.59;76015.45;108367;1251;61688;-74
2024/01/16 04:01:31;;;;;;;3.70;2.50;;;;;;;-144.99;82.72;76016.66;108355;1251;60367;-74
2024/01/16 04:03:58;;;;;;;4.00;2.40;;;;;;;-144.99;82.81;76014.66;108385;1251;73798;-73
2024/01/16 04:06:26;;;;;;;3.20;2.00;;;;;;;-144.99;81.57;76021.83;108351;1253;73593;-74
2024/01/16 04:08:53;;;;;;;6.40;2.90;;;;;;;-144.99;80.48;76020.23;108333;1251;72307;-74
2024/01/16 04:11:20;;;;;;;4.60;3.10;;;;;;;-144.99;81.03;76023.02;108331;1251;60959;-74
2024/01/16 04:13:46;;;;;;;5.70;3.50;;;;;;;-144.99;80.90;76032.16;108387;1254;60435;-74
2024/01/16 04:16:13;;;;;;;3.90;2.50;;;;;;;-144.99;80.50;76044.50;108343;1251;73860;-74
2024/01/16 04:18:42;;;;;;;5.00;2.40;;;;;;;-144.99;80.30;76044.89;108338;1250;72705;-73
2024/01/16 04:21:09;;;;;;;3.00;2.00;;;;;;;-144.99;79.79;76049.67;108388;1251;72388;-73
2024/01/16 04:23:36;;;;;;;1.80;1.50;;;;;;;-144.99;78.16;76055.64;108338;1250;60385;-73
2024/01/16 04:26:03;;;;;;;1.80;1.30;;;;;;;-144.99;77.44;76056.83;108354;1253;60284;-73
2024/01/16 04:28:30;;;;;;;2.20;1.40;;;;;;;-144.99;76.49;76058.82;108336;1251;73506;-74
2024/01/16 04:30:57;;;;;;;2.20;1.60;;;;;;;-144.99;76.07;76065.18;108356;1251;72331;-74
2024/01/16 04:33:24;;;;;;;2.20;1.20;;;;;;;-144.99;75.55;76075.52;108319;1250;72576;-74
2024/01/16 04:35:51;;;;;;;2.00;1.30;;;;;;;-144.99;74.06;76078.30;108322;1252;60402;-74
2024/01/16 04:38:18;;;;;;;1.10;1.00;;;;;;;-144.99;73.97;76095.41;108493;1250;60438;-74
2024/01/16 04:40:44;;;;;;;1.10;0.90;;;;;;;-144.99;73.25;76102.58;108354;1251;73522;-74
2024/01/16 04:43:11;;;;;;;1.30;1.10;;;;;;;-144.99;72.86;76115.30;108364;1251;73385;-74
2024/01/16 04:45:38;;;;;;;0.80;0.80;;;;;;;-144.99;72.84;76120.48;108320;1251;72472;-74
2024/01/16 04:48:05;;;;;;;1.30;1.20;;;;;;;-144.99;72.45;76121.27;108343;1251;60360;-74
2024/01/16 04:50:32;;;;;;;1.80;1.60;;;;;;;-144.99;69.29;76129.63;108352;1251;60332;-74
2024/01/16 04:52:59;;;;;;;2.40;1.60;;;;;;;-144.99;69.32;76135.19;108393;1251;73693;-74
2024/01/16 04:55:30;;;;;;;2.00;1.70;;;;;;;-144.99;66.82;76142.35;108406;1251;73415;-74
2024/01/16 04:57:57;;;;;;;5.60;3.70;;;;;;;-144.99;65.81;76152.30;108422;1250;71105;-74
2024/01/16 05:00:24;;;;;;;2.80;2.20;;;;;;;-144.99;65.13;76167.02;108281;1250;60377;-75
2024/01/16 05:02:51;;;;;;;1.60;1.40;;;;;;;-144.99;64.86;76178.55;108329;1251;60751;-74
2024/01/16 05:05:18;;;;;;;1.20;1.10;;;;;;;-144.99;65.20;76186.90;108331;1253;73572;-74
2024/01/16 05:07:45;;;;;;;1.10;0.90;;;;;;;-144.99;64.12;76196.05;108387;1251;72542;-74
2024/01/16 05:10:15;;;;;;;2.40;1.20;;;;;;;-144.99;63.82;76201.23;108346;1253;72432;-75
2024/01/16 05:12:42;;;;;;;1.60;1.20;;;;;;;-144.99;63.36;76212.36;108321;1251;60457;-74
2024/01/16 05:15:11;;;;;;;2.00;1.30;;;;;;;-144.99;63.44;76213.95;108337;1249;60303;-74
2024/01/16 05:17:37;;;;;;;1.90;1.40;;;;;;;-144.99;64.36;76217.92;108370;1251;73740;-74
2024/01/16 05:20:05;;;;;;;2.50;1.30;;;;;;;-144.99;65.03;76228.27;108382;1251;73559;-74
2024/01/16 05:22:32;;;;;;;1.70;1.30;;;;;;;-144.99;65.58;76236.63;108366;1251;72643;-76
2024/01/16 05:25:00;;;;;;;1.70;1.40;;;;;;;-144.99;65.37;76247.76;108312;1253;60394;-74
2024/01/16 05:27:27;;;;;;;1.40;1.30;;;;;;;-144.99;65.59;76259.30;108395;1253;60288;-74
2024/01/16 05:29:54;;;;;;;1.40;1.20;;;;;;;-144.99;66.13;76266.45;108314;1251;73824;-74
2024/01/16 05:32:21;;;;;;;2.40;1.30;;;;;;;-144.99;66.45;76274.41;108398;1254;73122;-74
2024/01/16 05:34:48;;;;;;;3.30;2.10;;;;;;;-144.99;66.73;76289.14;108336;1251;72598;-73
2024/01/16 05:37:15;;;;;;;3.00;1.80;;;;;;;-144.99;66.99;76284.76;108324;1251;60345;-74
2024/01/16 05:39:42;;;;;;;3.50;2.10;;;;;;;-144.99;67.49;76289.14;108364;1252;60270;-74
2024/01/16 05:42:11;;;;;;;8.10;4.20;;;;;;;-144.99;67.51;76296.29;108314;1250;73019;-74
2024/01/16 05:44:38;;;;;;;24.20;11.30;;;;;;;-144.99;67.14;76306.23;108391;1250;72230;-74
2024/01/16 05:47:05;;;;;;;79.00;29.50;;;;;;;-144.99;67.57;76311.41;108311;1251;71127;-74
2024/01/16 05:49:32;;;;;;;14.00;5.80;;;;;;;-144.99;67.23;76316.98;108307;1253;60296;-74
2024/01/16 05:51:59;;;;;;;2.70;2.00;;;;;;;-144.99;67.53;76319.77;108394;1250;60294;-74
2024/01/16 05:54:27;;;;;;;2.40;1.80;;;;;;;-144.99;67.64;76327.33;108326;1251;72488;-74
2024/01/16 05:56:54;;;;;;;1.60;1.50;;;;;;;-144.99;67.68;76333.29;108304;1250;73523;-73
2024/01/16 05:59:21;;;;;;;2.80;2.30;;;;;;;-144.99;67.55;76327.71;108290;1253;72854;-73
2024/01/16 06:01:49;;;;;;;4.60;3.10;;;;;;;-144.99;67.98;76329.70;108312;1250;60344;-75
2024/01/16 06:04:16;;;;;;;3.90;2.40;;;;;;;-144.99;67.64;76328.11;108288;1251;60914;-73
2024/01/16 06:06:45;;;;;;;4.40;2.00;;;;;;;-144.99;67.98;76329.30;108268;1251;73183;-73
2024/01/16 06:09:13;;;;;;;3.30;1.90;;;;;;;-144.99;67.53;76332.48;108411;1254;73527;-73
2024/01/16 06:11:43;;;;;;;6.50;3.50;;;;;;;-144.99;67.94;76337.27;108398;1254;71455;-74
2024/01/16 06:14:12;;;;;;;6.00;3.00;;;;;;;-144.99;68.47;76343.63;108376;1251;60515;-75
2024/01/16 06:16:38;;;;;;;10.20;4.50;;;;;;;-144.99;69.30;76348.01;108275;1251;60438;-73
2024/01/16 06:19:05;;;;;;;12.80;4.30;;;;;;;-144.99;69.18;76355.56;108386;1251;73522;-74
2024/01/16 06:21:32;;;;;;;4.00;2.10;;;;;;;-144.99;69.29;76362.73;108186;1254;73301;-76
2024/01/16 06:23:59;;;;;;;2.00;1.60;;;;;;;-144.99;69.47;76360.34;108143;1250;72412;-75
2024/01/16 06:26:26;;;;;;;2.90;1.90;;;;;;;-144.99;69.52;76363.92;108109;1249;60789;-74
2024/01/16 06:28:53;;;;;;;3.90;2.50;;;;;;;-144.99;69.94;76370.28;108197;1251;60403;-73
2024/01/16 06:31:20;;;;;;;5.80;3.50;;;;;;;-144.99;70.29;76372.27;108383;1251;73824;-76
2024/01/16 06:33:48;;;;;;;4.50;2.90;;;;;;;-144.99;70.97;76377.05;108286;1251;72783;-74
2024/01/16 06:36:15;;;;;;;5.00;2.70;;;;;;;-144.99;71.28;76374.66;108320;1253;72672;-73
2024/01/16 06:38:42;;;;;;;4.90;3.10;;;;;;;-144.99;71.50;76372.67;108231;1251;60392;-74
2024/01/16 06:41:09;;;;;;;4.30;2.60;;;;;;;-144.99;71.20;76379.44;108336;1250;61427;-75
2024/01/16 06:43:36;;;;;;;5.50;3.30;;;;;;;-144.99;70.80;76385.00;108369;1251;73744;-75
2024/01/16 06:46:04;;;;;;;4.80;3.20;;;;;;;-144.99;70.57;76393.36;108346;1251;73553;-74
2024/01/16 06:48:31;;;;;;;5.50;3.70;;;;;;;-144.99;71.00;76400.12;108376;1251;72293;-74
2024/01/16 06:50:59;;;;;;;4.10;3.00;;;;;;;-144.99;70.70;76410.86;108381;1250;60265;-75
2024/01/16 06:53:26;;;;;;;3.70;2.60;;;;;;;-144.99;70.47;76414.84;108401;1250;61462;-75
2024/01/16 06:55:53;;;;;;;6.10;4.00;;;;;;;-144.99;70.77;76420.01;108433;1251;72606;-74
2024/01/16 06:58:20;;;;;;;11.00;7.00;;;;;;;-144.99;70.71;76426.38;108444;1251;73396;-75
2024/01/16 07:00:47;;;;;;;9.50;7.10;;;;;;;-144.99;71.29;76431.55;108390;1251;71742;-73
2024/01/16 07:03:14;;;;;;;21.20;12.20;;;;;;;-144.99;71.47;76436.71;108420;1250;60291;-77
2024/01/16 07:05:42;;;;;;;9.10;5.70;;;;;;;-144.99;71.93;76442.68;108465;1249;60306;-75
2024/01/16 07:08:09;;;;;;;7.30;4.40;;;;;;;-144.99;71.66;76447.06;108413;1251;73212;-74
2024/01/16 07:10:36;;;;;;;7.60;4.80;;;;;;;-144.99;71.90;76451.83;108381;1251;72411;-75
2024/01/16 07:13:04;;;;;;;8.40;4.80;;;;;;;-144.99;72.53;76453.02;108399;1251;73420;-75
2024/01/16 07:15:30;;;;;;;6.00;4.00;;;;;;;-144.99;72.64;76458.20;108397;1250;61037;-75
2024/01/16 07:17:57;;;;;;;4.60;3.40;;;;;;;-144.99;72.68;76458.60;108376;1253;60387;-74
2024/01/16 07:20:24;;;;;;;7.90;4.90;;;;;;;-144.99;73.06;76458.59;108409;1251;72625;-75
2024/01/16 07:22:51;;;;;;;7.60;4.20;;;;;;;-144.99;73.70;76458.99;108385;1251;73566;-75
2024/01/16 07:25:18;;;;;;;6.00;3.50;;;;;;;-144.99;73.72;76461.38;108455;1251;71496;-74
2024/01/16 07:27:48;;;;;;;6.60;3.90;;;;;;;-144.99;73.90;76464.56;108369;1251;60433;-74
2024/01/16 07:30:16;;;;;;;7.10;4.10;;;;;;;-144.99;74.11;76463.38;108410;1249;60303;-79
2024/01/16 07:32:42;;;;;;;6.70;3.70;;;;;;;-144.99;74.40;76462.58;108409;1251;73807;-75
2024/01/16 07:35:10;;;;;;;8.40;4.70;;;;;;;-144.99;74.33;76465.75;108398;1251;73232;-75
2024/01/16 07:37:37;;;;;;;6.40;3.80;;;;;;;-144.99;74.30;76473.71;108453;1251;72665;-74
2024/01/16 07:40:05;;;;;;;6.90;4.10;;;;;;;-144.99;74.55;76480.08;108383;1251;60522;-74
2024/01/16 07:42:34;;;;;;;5.80;3.40;;;;;;;-144.99;74.89;76479.28;108414;1249;60329;-76
2024/01/16 07:45:04;;;;;;;4.40;3.10;;;;;;;-144.99;74.58;76480.48;108364;1251;73738;-74
2024/01/16 07:47:33;;;;;;;3.50;2.50;;;;;;;-144.99;74.54;76483.66;108307;1250;73273;-75
2024/01/16 07:50:01;;;;;;;5.30;3.10;;;;;;;-144.99;74.52;76492.80;108415;1254;72723;-75
2024/01/16 07:52:32;;;;;;;7.50;4.20;;;;;;;-144.99;74.50;76492.41;108404;1250;60434;-73
2024/01/16 07:54:59;;;;;;;4.80;2.80;;;;;;;-144.99;74.37;76501.56;108343;1253;60376;-74
2024/01/16 07:57:26;;;;;;;4.40;2.70;;;;;;;-144.99;74.23;76499.57;108410;1251;73651;-75
2024/01/16 07:59:53;;;;;;;3.60;2.60;;;;;;;-144.99;74.08;76496.39;108304;1250;73498;-76
2024/01/16 08:02:20;;;;;;;7.30;4.80;;;;;;;-144.99;73.81;76486.05;108371;1253;73713;-75
2024/01/16 08:04:51;;;;;;;4.40;3.50;;;;;;;-144.99;73.11;76469.34;108389;1251;60380;-73
2024/01/16 08:07:17;;;;;;;3.70;2.30;;;;;;;-144.99;72.95;76455.80;108458;1250;61791;-75
2024/01/16 08:09:44;;;;;;;3.60;2.50;;;;;;;-144.99;72.64;76449.05;108310;1249;74984;-74
2024/01/16 08:12:21;;;;;;;3.80;2.80;;;;;;;-144.99;72.22;76438.31;108341;1251;73382;-74
2024/01/16 08:14:49;;;;;;;4.60;2.70;;;;;;;-144.99;71.91;76436.71;108233;1251;72681;-75
2024/01/16 08:17:20;;;;;;;4.50;2.80;;;;;;;-144.99;71.59;76432.34;108319;1250;60537;-75
2024/01/16 08:19:47;;;;;;;4.50;2.10;;;;;;;-144.99;71.25;76435.92;108277;1250;61661;-74
2024/01/16 08:22:14;;;;;;;4.00;2.20;;;;;;;-144.99;71.55;76431.14;108138;1249;73632;-75
2024/01/16 08:24:41;;;;;;;3.30;2.40;;;;;;;-144.99;71.28;76428.77;108249;1251;73635;-75
2024/01/16 08:27:08;;;;;;;3.00;2.40;;;;;;;-144.99;70.73;76423.19;108252;1254;72678;-74
2024/01/16 08:29:35;;;;;;;4.00;2.10;;;;;;;-144.99;70.63;76423.59;108252;1251;60302;-75
2024/01/16 08:32:02;;;;;;;3.90;2.50;;;;;;;-144.99;70.81;76424.39;108259;1251;60828;-74
2024/01/16 08:34:29;;;;;;;3.50;2.60;;;;;;;-144.99;70.99;76429.55;108309;1251;74284;-77
2024/01/16 08:36:56;;;;;;;3.70;2.80;;;;;;;-144.99;71.20;76425.98;108363;1250;72614;-73
2024/01/16 08:39:27;;;;;;;3.30;2.50;;;;;;;-144.99;71.14;76432.73;108364;1251;71486;-75
2024/01/16 08:41:55;;;;;;;4.00;3.00;;;;;;;-144.99;71.03;76440.30;108344;1251;61658;-74
2024/01/16 08:44:22;;;;;;;3.80;2.40;;;;;;;-144.99;71.04;76447.45;108352;1250;61590;-74
2024/01/16 08:46:49;;;;;;;4.30;2.80;;;;;;;-144.99;71.68;76455.81;108329;1250;72880;-74
2024/01/16 08:49:16;;;;;;;4.60;3.60;;;;;;;-144.99;71.84;76466.55;108306;1250;73751;-74
2024/01/16 08:51:50;;;;;;;4.80;3.40;;;;;;;-144.99;72.00;76466.95;108286;1249;72605;-75
2024/01/16 08:54:18;;;;;;;3.40;2.90;;;;;;;-144.99;72.22;76469.33;108357;1250;60407;-72
2024/01/16 08:56:44;;;;;;;3.70;2.30;;;;;;;-144.99;71.78;76471.33;108365;1250;60066;-75
2024/01/16 08:59:12;;;;;;;4.10;2.50;;;;;;;-144.99;72.15;76476.10;108276;1251;72955;-72
2024/01/16 09:01:41;;;;;;;3.00;2.30;;;;;;;-144.99;72.18;76478.88;108322;1250;71448;-73
2024/01/16 09:04:08;;;;;;;3.70;2.70;;;;;;;-144.99;72.34;76476.90;108266;1253;73113;-73
2024/01/16 09:06:36;;;;;;;2.90;2.40;;;;;;;-144.99;72.64;76477.29;108174;1251;61298;-73
2024/01/16 09:09:06;;;;;;;4.60;3.10;;;;;;;-144.99;72.94;76476.10;108299;1253;60514;-74
2024/01/16 09:11:33;;;;;;;7.60;3.90;;;;;;;-144.99;73.23;76476.90;108433;1251;73765;-73
2024/01/16 09:14:00;;;;;;;5.20;3.60;;;;;;;-144.99;73.40;76477.69;108236;1252;71770;-73
2024/01/16 09:16:31;;;;;;;5.90;3.60;;;;;;;-144.99;73.44;76479.67;108313;1250;72839;-73
2024/01/16 09:18:58;;;;;;;6.30;4.00;;;;;;;-144.99;73.35;76488.83;108352;1249;60435;-72
2024/01/16 09:21:25;;;;;;;3.90;3.20;;;;;;;-144.99;73.63;76497.98;108340;1250;60313;-75
2024/01/16 09:23:52;;;;;;;5.40;3.40;;;;;;;-144.99;73.60;76497.58;108232;1250;72516;-73
2024/01/16 09:26:20;;;;;;;5.30;2.70;;;;;;;-144.99;73.67;76498.37;108135;1251;74001;-74
2024/01/16 09:28:47;;;;;;;6.30;3.40;;;;;;;-144.99;73.91;76497.18;108224;1250;73635;-74
2024/01/16 09:31:17;;;;;;;7.60;3.50;;;;;;;-144.99;74.11;76496.77;108239;1251;60256;-75
2024/01/16 09:33:44;;;;;;;5.70;3.60;;;;;;;-144.99;74.16;76491.61;108151;1250;61149;-73
2024/01/16 09:36:11;;;;;;;6.80;4.50;;;;;;;-144.99;73.89;76478.48;108073;1249;73907;-75
2024/01/16 09:38:38;;;;;;;6.30;4.40;;;;;;;-144.99;73.17;76466.55;108152;1250;72495;-73
2024/01/16 09:41:09;;;;;;;4.00;2.90;;;;;;;-144.99;71.70;76457.40;108185;1251;70943;-73
2024/01/16 09:43:36;;;;;;;4.20;2.90;;;;;;;-144.99;71.28;76449.84;108187;1251;60320;-74
2024/01/16 09:46:04;;;;;;;6.30;4.10;;;;;;;-144.99;70.97;76443.08;108204;1255;60505;-74
2024/01/16 09:48:31;;;;;;;6.00;4.10;;;;;;;-144.99;71.22;76450.64;108254;1250;73255;-75
2024/01/16 09:50:59;;;;;;;3.80;2.70;;;;;;;-144.99;70.18;76459.00;108331;1251;71830;-75
2024/01/16 09:53:26;;;;;;;3.20;2.70;;;;;;;-144.99;67.89;76462.17;108442;1251;72046;-75
2024/01/16 09:55:54;;;;;;;4.30;2.80;;;;;;;-144.99;66.98;76460.59;108273;1251;60627;-75
2024/01/16 09:58:21;;;;;;;5.60;2.70;;;;;;;-144.99;67.09;76470.92;108345;1249;60505;-76
2024/01/16 10:00:52;;;;;;;3.30;2.40;;;;;;;-144.99;66.99;76480.87;108366;1250;73919;-75
2024/01/16 10:03:19;;;;;;;2.40;2.20;;;;;;;-144.99;66.82;76482.86;108342;1250;71268;-76
2024/01/16 10:05:46;;;;;;;3.80;2.40;;;;;;;-144.99;67.08;76487.63;108278;1249;73043;-73
2024/01/16 10:08:14;;;;;;;4.20;2.40;;;;;;;-144.99;67.34;76501.16;108426;1251;60290;-75
2024/01/16 10:10:41;;;;;;;3.80;2.80;;;;;;;-144.99;67.31;76502.75;108293;1249;61184;-73
2024/01/16 10:13:17;;;;;;;4.60;3.60;;;;;;;-144.99;66.58;76509.52;108320;1249;75456;-73
2024/01/16 10:15:43;;;;;;;4.60;3.80;;;;;;;-144.99;67.00;76507.52;108283;1254;73485;-74
2024/01/16 10:18:31;;;;;;;2.90;2.20;;;;;;;-144.99;66.39;76505.54;108313;1251;71737;-78
2024/01/16 10:20:58;;;;;;;3.70;2.70;;;;;;;-144.99;66.08;76503.55;108222;1251;60289;-74
2024/01/16 10:23:29;;;;;;;6.40;3.80;;;;;;;-144.99;66.05;76499.96;108314;1250;60296;-75
2024/01/16 10:26:14;;;;;;;6.10;3.00;;;;;;;-144.99;65.06;76509.52;108325;1251;71645;-73
2024/01/16 10:28:42;;;;;;;4.50;2.80;;;;;;;-144.99;65.10;76521.85;108428;1250;71547;-75
2024/01/16 10:31:14;;;;;;;6.70;4.90;;;;;;;-144.99;64.85;76537.77;108402;1250;73452;-73
2024/01/16 10:33:41;;;;;;;5.00;3.70;;;;;;;-144.99;65.65;76548.51;108357;1251;60940;-76
2024/01/16 10:36:11;;;;;;;5.50;3.60;;;;;;;-144.99;65.94;76555.27;108412;1250;60282;-74
2024/01/16 10:38:44;;;;;;;8.80;4.70;;;;;;;-144.99;66.10;76565.21;108343;1250;72699;-77
2024/01/16 10:41:13;;;;;;;5.90;4.10;;;;;;;-144.99;66.12;76562.82;108458;1252;73742;-75
2024/01/16 10:43:41;;;;;;;5.40;3.60;;;;;;;-144.99;66.09;76566.01;108355;1251;72426;-75
2024/01/16 10:46:11;;;;;;;5.80;4.30;;;;;;;-144.99;65.63;76567.20;108279;1249;59487;-74
2024/01/16 10:48:40;;;;;;;4.10;3.00;;;;;;;-144.99;65.69;76565.21;108397;1250;60239;-75
2024/01/16 10:51:08;;;;;;;4.60;3.80;;;;;;;-144.99;65.07;76558.45;108436;1249;71892;-74
2024/01/16 10:53:35;;;;;;;6.20;4.10;;;;;;;-144.99;64.14;76551.69;108436;1250;73273;-73
2024/01/16 10:56:03;;;;;;;5.60;3.30;;;;;;;-144.99;63.17;76558.84;108456;1254;72437;-74
2024/01/16 10:58:31;;;;;;;3.30;2.60;;;;;;;-144.99;63.26;76569.19;108386;1250;60442;-74
2024/01/16 11:01:03;;;;;;;3.50;2.80;;;;;;;-144.99;62.51;76570.38;108465;1250;61183;-74
2024/01/16 11:03:52;;;;;;;5.60;3.80;;;;;;;-144.99;61.45;76572.77;108438;1250;71729;-71
2024/01/16 11:06:20;;;;;;;7.60;3.90;;;;;;;-144.99;60.94;76577.95;108325;1251;73742;-74
2024/01/16 11:08:48;;;;;;;4.50;3.40;;;;;;;-144.99;60.37;76577.55;108361;1250;72624;-74
2024/01/16 11:11:15;;;;;;;5.60;3.70;;;;;;;-144.99;60.35;76571.97;108287;1251;61058;-74